Time;durP1;ratioP1;P1;durP2;ratioP2;P2;SDS_P1;SDS_P2;PMS_P1;PMS_P2;Temp;Humidity;BMP_temperature;BMP_pressure;BME280_temperature;BME280_humidity;BME280_pressure;Samples;Min_cycle;Max_cycle;Signal;HPM_P1;HPM_P2
2021/04/29 00:00:14;;;;;;;27.88;18.63;;;11.60;99.90;;;;;;6253653;28;20042;-77
2021/04/29 00:03:16;;;;;;;30.45;19.73;;;11.70;99.90;;;;;;6256035;28;20476;-78
2021/04/29 00:06:17;;;;;;;31.05;19.17;;;11.60;99.90;;;;;;6257339;28;20109;-77
2021/04/29 00:09:18;;;;;;;38.80;20.75;;;11.60;99.90;;;;;;6256670;28;20052;-77
2021/04/29 00:12:20;;;;;;;29.42;18.88;;;11.70;99.90;;;;;;6257806;28;20076;-77
2021/04/29 00:15:22;;;;;;;29.85;19.17;;;11.70;99.90;;;;;;6256012;28;20049;-77
2021/04/29 00:18:24;;;;;;;33.55;18.45;;;11.80;99.90;;;;;;6252004;28;20499;-77
2021/04/29 00:21:25;;;;;;;34.95;20.02;;;11.80;99.90;;;;;;6251241;28;20453;-77
2021/04/29 00:24:27;;;;;;;32.10;19.35;;;11.80;99.90;;;;;;6252454;28;20120;-78
2021/04/29 00:27:28;;;;;;;24.60;17.77;;;11.80;99.90;;;;;;6253124;28;20078;-78
2021/04/29 00:30:30;;;;;;;27.08;17.63;;;11.90;99.90;;;;;;6255510;28;20146;-76
2021/04/29 00:33:32;;;;;;;27.35;18.83;;;11.80;99.90;;;;;;6254424;28;20045;-77
2021/04/29 00:36:33;;;;;;;26.52;18.52;;;11.80;99.90;;;;;;6251011;28;20120;-77
2021/04/29 00:39:34;;;;;;;25.65;17.95;;;11.80;99.90;;;;;;6252755;28;20068;-77
2021/04/29 00:42:37;;;;;;;24.17;15.48;;;11.80;99.90;;;;;;6253835;28;20056;-77
2021/04/29 00:45:40;;;;;;;19.33;15.02;;;11.70;99.90;;;;;;6253858;28;20045;-77
2021/04/29 00:48:43;;;;;;;23.13;15.90;;;11.70;99.90;;;;;;6253683;28;20041;-76
2021/04/29 00:51:44;;;;;;;28.33;17.38;;;11.70;99.90;;;;;;6253411;28;20080;-76
2021/04/29 00:54:45;;;;;;;26.08;15.55;;;11.70;99.90;;;;;;6254424;28;20073;-77
2021/04/29 00:57:47;;;;;;;27.73;17.48;;;11.60;99.90;;;;;;6253083;28;20045;-76
2021/04/29 01:00:49;;;;;;;26.80;18.27;;;11.70;99.90;;;;;;6253571;28;20484;-77
2021/04/29 01:03:53;;;;;;;34.28;18.52;;;11.70;99.90;;;;;;6252967;28;20088;-78
2021/04/29 01:06:58;;;;;;;26.75;18.35;;;11.70;99.90;;;;;;6254757;28;20072;-78
2021/04/29 01:10:08;;;;;;;28.80;19.33;;;11.70;99.90;;;;;;6251665;28;20057;-78
2021/04/29 01:13:14;;;;;;;25.70;18.58;;;11.70;99.90;;;;;;6251731;28;20084;-78
2021/04/29 01:16:18;;;;;;;32.53;19.10;;;11.70;99.90;;;;;;6252185;28;20076;-78
2021/04/29 01:19:21;;;;;;;36.55;22.25;;;11.70;99.90;;;;;;6252713;28;20128;-78
2021/04/29 01:22:22;;;;;;;27.80;20.38;;;11.80;99.90;;;;;;6251686;28;20092;-77
2021/04/29 01:25:28;;;;;;;30.80;21.58;;;11.70;99.90;;;;;;6248779;28;20057;-78
2021/04/29 01:28:31;;;;;;;38.55;22.63;;;11.70;99.90;;;;;;6251764;28;20065;-77
2021/04/29 01:31:35;;;;;;;31.55;21.17;;;11.60;99.90;;;;;;6259287;28;20133;-78
2021/04/29 01:34:38;;;;;;;38.33;24.67;;;11.60;99.90;;;;;;6275257;28;20073;-78
2021/04/29 01:37:40;;;;;;;39.15;25.20;;;11.60;99.90;;;;;;6275811;28;20053;-78
2021/04/29 01:40:42;;;;;;;40.83;25.98;;;11.50;99.90;;;;;;6275820;28;20413;-78
2021/04/29 01:43:45;;;;;;;36.63;24.98;;;11.50;99.90;;;;;;6275213;28;20085;-77
2021/04/29 01:46:48;;;;;;;35.00;23.70;;;11.50;99.90;;;;;;6276182;28;20068;-77
2021/04/29 01:49:50;;;;;;;28.10;19.70;;;11.50;99.90;;;;;;6275402;28;20136;-78
2021/04/29 01:52:52;;;;;;;23.48;16.67;;;11.50;99.90;;;;;;6276363;28;20506;-77
2021/04/29 01:55:54;;;;;;;23.08;17.48;;;11.50;99.90;;;;;;6276392;28;20084;-77
2021/04/29 01:58:56;;;;;;;33.42;18.15;;;11.40;99.90;;;;;;6279523;28;20132;-77
2021/04/29 02:01:58;;;;;;;30.88;19.50;;;11.40;99.90;;;;;;6280415;28;20530;-77
2021/04/29 02:04:59;;;;;;;26.48;16.45;;;11.30;99.90;;;;;;6277339;28;20465;-77
2021/04/29 02:08:00;;;;;;;27.75;16.92;;;11.40;99.90;;;;;;6275477;28;20410;-77
2021/04/29 02:11:03;;;;;;;26.70;18.95;;;11.30;99.90;;;;;;6276497;28;20520;-77
2021/04/29 02:14:07;;;;;;;26.58;18.08;;;11.20;99.90;;;;;;6275408;28;20122;-77
2021/04/29 02:17:13;;;;;;;29.42;20.02;;;11.20;99.90;;;;;;6275635;28;20108;-77
2021/04/29 02:20:16;;;;;;;33.95;18.33;;;11.20;99.90;;;;;;6275583;28;20124;-77
2021/04/29 02:23:20;;;;;;;28.05;20.05;;;11.20;99.90;;;;;;6275827;28;20102;-77
2021/04/29 02:26:21;;;;;;;43.40;23.40;;;11.30;99.90;;;;;;6275379;28;20540;-77
2021/04/29 02:29:24;;;;;;;40.47;21.52;;;11.20;99.90;;;;;;6274683;28;20065;-77
2021/04/29 02:32:25;;;;;;;44.95;24.63;;;11.20;99.90;;;;;;6270756;28;20867;-77
2021/04/29 02:35:27;;;;;;;34.55;21.77;;;11.20;99.90;;;;;;6255284;28;20572;-77
2021/04/29 02:38:29;;;;;;;30.98;18.48;;;11.20;99.90;;;;;;6251223;28;20566;-77
2021/04/29 02:41:31;;;;;;;36.40;18.98;;;11.20;99.90;;;;;;6250207;28;20180;-77
2021/04/29 02:44:34;;;;;;;27.00;17.80;;;11.20;99.90;;;;;;6252691;28;20141;-77
2021/04/29 02:47:36;;;;;;;31.80;19.33;;;11.10;99.90;;;;;;6251874;28;20123;-77
2021/04/29 02:50:43;;;;;;;27.73;18.85;;;11.10;99.90;;;;;;6253349;28;20041;-77
2021/04/29 02:53:45;;;;;;;21.30;16.80;;;11.10;99.90;;;;;;6264058;22;20045;-76
2021/04/29 02:56:46;;;;;;;27.65;19.45;;;11.10;99.90;;;;;;6249072;28;20053;-76
2021/04/29 02:59:49;;;;;;;35.47;20.15;;;11.10;99.90;;;;;;6249079;28;20137;-76
2021/04/29 03:02:50;;;;;;;31.27;19.33;;;11.00;99.90;;;;;;6249610;28;20085;-76
2021/04/29 03:05:51;;;;;;;34.20;20.80;;;11.00;99.90;;;;;;6248790;28;20045;-77
2021/04/29 03:08:52;;;;;;;28.75;19.70;;;11.00;99.90;;;;;;6248612;28;20041;-77
2021/04/29 03:11:54;;;;;;;31.30;17.77;;;11.00;99.90;;;;;;6249057;28;20538;-76
2021/04/29 03:14:56;;;;;;;36.15;20.95;;;10.90;99.90;;;;;;6252010;28;20073;-76
2021/04/29 03:17:57;;;;;;;31.00;18.67;;;10.80;99.90;;;;;;6250204;28;20119;-77
2021/04/29 03:20:59;;;;;;;33.20;19.23;;;10.80;99.90;;;;;;6249630;28;20057;-76
2021/04/29 03:24:00;;;;;;;35.88;21.65;;;10.80;99.90;;;;;;6249277;28;20130;-77
2021/04/29 03:27:02;;;;;;;44.38;23.05;;;10.70;99.90;;;;;;6249436;28;20148;-77
2021/04/29 03:30:05;;;;;;;37.75;22.08;;;10.80;99.90;;;;;;6249884;28;20061;-77
2021/04/29 03:33:07;;;;;;;41.45;21.98;;;10.80;99.90;;;;;;6248629;28;20617;-76
2021/04/29 03:36:08;;;;;;;37.83;20.65;;;10.80;99.90;;;;;;6247346;28;20064;-76
2021/04/29 03:39:09;;;;;;;37.47;21.25;;;10.80;99.90;;;;;;6247896;28;20558;-76
2021/04/29 03:42:11;;;;;;;37.63;23.65;;;10.90;99.90;;;;;;6248019;28;20156;-76
2021/04/29 03:45:14;;;;;;;40.10;21.67;;;10.90;99.90;;;;;;6247880;28;20071;-76
2021/04/29 03:48:15;;;;;;;35.25;21.85;;;10.90;99.90;;;;;;6247663;28;20626;-77
2021/04/29 03:51:17;;;;;;;28.10;19.33;;;10.90;99.90;;;;;;6247816;28;20479;-76
2021/04/29 03:54:18;;;;;;;38.88;21.27;;;10.90;99.90;;;;;;6247344;28;20072;-76
2021/04/29 03:57:19;;;;;;;36.78;22.92;;;10.80;99.90;;;;;;6247810;28;20046;-76
2021/04/29 04:00:22;;;;;;;32.53;21.35;;;10.80;99.90;;;;;;6247767;28;20120;-77
2021/04/29 04:03:23;;;;;;;44.05;20.58;;;10.70;99.90;;;;;;6248678;28;20717;-77
2021/04/29 04:06:25;;;;;;;34.00;21.13;;;10.70;99.90;;;;;;6247699;28;20140;-77
2021/04/29 04:09:26;;;;;;;38.90;23.00;;;10.70;99.90;;;;;;6247921;28;20072;-76
2021/04/29 04:12:28;;;;;;;41.05;22.00;;;10.70;99.90;;;;;;6247507;28;20045;-77
2021/04/29 04:15:30;;;;;;;46.90;23.23;;;10.70;99.90;;;;;;6248086;28;20134;-77
2021/04/29 04:18:32;;;;;;;46.72;25.48;;;10.70;99.90;;;;;;6246640;28;20142;-77
2021/04/29 04:21:33;;;;;;;55.72;28.38;;;10.70;99.90;;;;;;6247831;28;20072;-76
2021/04/29 04:24:34;;;;;;;49.78;26.02;;;10.80;99.90;;;;;;6247796;28;20120;-77
2021/04/29 04:27:36;;;;;;;49.53;25.77;;;10.80;99.90;;;;;;6247310;28;20136;-76
2021/04/29 04:30:45;;;;;;;61.90;28.67;;;10.90;99.90;;;;;;6247348;28;20131;-77
2021/04/29 04:33:49;;;;;;;51.63;25.02;;;10.90;99.90;;;;;;6246690;28;20045;-76
2021/04/29 04:36:51;;;;;;;47.25;26.88;;;10.90;99.90;;;;;;6246365;28;20067;-77
2021/04/29 04:39:52;;;;;;;53.20;27.27;;;11.00;99.90;;;;;;6246599;28;20083;-77
2021/04/29 04:42:54;;;;;;;51.75;27.17;;;11.10;99.90;;;;;;6248802;28;20136;-77
2021/04/29 04:45:56;;;;;;;58.60;28.92;;;11.10;99.90;;;;;;6246732;28;20674;-77
2021/04/29 04:48:57;;;;;;;42.10;24.77;;;11.30;99.90;;;;;;6246536;28;20598;-77
2021/04/29 04:51:59;;;;;;;43.63;23.60;;;11.40;99.90;;;;;;6246418;28;20065;-76
2021/04/29 04:55:00;;;;;;;37.97;23.20;;;11.40;99.90;;;;;;6246708;28;20079;-77
2021/04/29 04:58:02;;;;;;;33.45;21.02;;;11.50;99.90;;;;;;6247188;28;20052;-76
2021/04/29 05:01:04;;;;;;;41.53;21.77;;;11.50;99.90;;;;;;6246213;28;20422;-76
2021/04/29 05:04:06;;;;;;;41.33;21.88;;;11.40;99.90;;;;;;6246029;28;20119;-77
2021/04/29 05:07:07;;;;;;;37.53;24.60;;;11.50;99.90;;;;;;6246750;28;20077;-77
2021/04/29 05:10:10;;;;;;;40.92;21.60;;;11.60;99.90;;;;;;6245591;28;20498;-77
2021/04/29 05:13:11;;;;;;;38.40;24.42;;;11.70;99.90;;;;;;6246046;28;20049;-77
2021/04/29 05:16:13;;;;;;;28.17;17.83;;;11.70;99.90;;;;;;6246264;28;20127;-77
2021/04/29 05:19:15;;;;;;;28.05;18.15;;;11.80;99.90;;;;;;6246325;28;20677;-77
2021/04/29 05:22:16;;;;;;;23.83;16.63;;;12.00;99.90;;;;;;6246628;28;20072;-76
2021/04/29 05:25:17;;;;;;;19.83;17.05;;;12.10;99.90;;;;;;6245794;28;20124;-76
2021/04/29 05:28:19;;;;;;;18.55;14.57;;;12.30;99.90;;;;;;6245552;28;20037;-76
2021/04/29 05:31:21;;;;;;;16.10;13.15;;;12.40;99.90;;;;;;6251246;28;20122;-76
2021/04/29 05:34:22;;;;;;;17.02;13.95;;;12.60;99.90;;;;;;6255762;28;20045;-76
2021/04/29 05:37:24;;;;;;;13.30;9.48;;;13.00;99.90;;;;;;6255464;28;20426;-76
2021/04/29 05:40:26;;;;;;;10.05;9.05;;;13.30;99.90;;;;;;6255647;28;20439;-76
2021/04/29 05:43:27;;;;;;;12.88;9.43;;;13.50;99.90;;;;;;6253335;28;20140;-77
2021/04/29 05:46:29;;;;;;;10.82;8.95;;;13.70;99.90;;;;;;6253573;28;20096;-76
2021/04/29 05:49:31;;;;;;;13.02;8.55;;;14.00;99.90;;;;;;6253344;28;20061;-76
2021/04/29 05:52:32;;;;;;;9.30;7.90;;;14.10;99.90;;;;;;6255024;28;20064;-77
2021/04/29 05:55:34;;;;;;;8.13;7.15;;;14.20;99.90;;;;;;6254541;28;20077;-76
2021/04/29 05:58:35;;;;;;;9.20;8.32;;;14.40;99.90;;;;;;6254906;28;20061;-76
2021/04/29 06:01:37;;;;;;;9.13;7.95;;;14.40;99.90;;;;;;6254017;28;20069;-77
2021/04/29 06:04:38;;;;;;;6.97;6.38;;;14.60;99.90;;;;;;6243870;28;20132;-75
2021/04/29 06:07:40;;;;;;;7.78;6.95;;;14.70;99.90;;;;;;6252477;28;20533;-77
2021/04/29 06:10:41;;;;;;;8.07;7.35;;;14.90;99.90;;;;;;6251575;28;20128;-76
2021/04/29 06:13:44;;;;;;;12.90;11.52;;;15.00;99.90;;;;;;6252999;28;20042;-77
2021/04/29 06:16:46;;;;;;;7.40;6.03;;;14.80;99.90;;;;;;6254519;28;20071;-76
2021/04/29 06:19:48;;;;;;;6.78;5.80;;;14.80;99.90;;;;;;6252807;28;20049;-76
2021/04/29 06:22:49;;;;;;;9.98;6.32;;;14.60;99.90;;;;;;6252402;28;20136;-77
2021/04/29 06:25:50;;;;;;;11.23;6.82;;;14.40;99.90;;;;;;6253484;28;20072;-77
2021/04/29 06:28:52;;;;;;;9.50;5.97;;;14.20;99.90;;;;;;6249616;28;20217;-76
2021/04/29 06:31:54;;;;;;;7.60;6.80;;;14.00;99.90;;;;;;6251147;28;20054;-76
2021/04/29 06:34:55;;;;;;;6.07;5.47;;;13.80;99.90;;;;;;6251761;28;20050;-76
2021/04/29 06:37:57;;;;;;;7.82;6.90;;;13.60;99.90;;;;;;6234573;28;20054;-76
2021/04/29 06:40:58;;;;;;;7.78;6.32;;;13.40;99.90;;;;;;6246807;28;20045;-76
2021/04/29 06:44:00;;;;;;;6.53;5.90;;;13.30;99.90;;;;;;6249743;28;20124;-76
2021/04/29 06:47:02;;;;;;;7.97;6.63;;;13.10;99.90;;;;;;6249710;28;20461;-76
2021/04/29 06:50:04;;;;;;;8.85;6.20;;;13.00;99.90;;;;;;6249578;28;20514;-76
2021/04/29 06:53:06;;;;;;;6.15;5.45;;;12.90;99.90;;;;;;6250814;28;20124;-76
2021/04/29 06:56:07;;;;;;;9.70;5.60;;;12.70;99.90;;;;;;6250253;28;20064;-76
2021/04/29 06:59:09;;;;;;;8.20;6.25;;;12.70;99.90;;;;;;6250076;28;20077;-76
2021/04/29 07:02:11;;;;;;;10.43;6.43;;;12.70;99.90;;;;;;6249052;28;20157;-76
2021/04/29 07:05:12;;;;;;;9.05;5.55;;;13.00;99.90;;;;;;6249581;28;20042;-76
2021/04/29 07:08:15;;;;;;;10.63;7.80;;;13.30;99.90;;;;;;6248529;28;20072;-76
2021/04/29 07:11:16;;;;;;;13.68;9.90;;;13.60;99.90;;;;;;6249890;28;20081;-76
2021/04/29 07:14:18;;;;;;;8.90;7.95;;;13.90;99.90;;;;;;6250857;28;20133;-75
2021/04/29 07:17:20;;;;;;;7.50;5.10;;;14.20;99.90;;;;;;6251990;28;20046;-77
2021/04/29 07:20:21;;;;;;;9.77;5.80;;;14.50;99.90;;;;;;6252620;28;20064;-77
2021/04/29 07:23:22;;;;;;;5.10;4.60;;;15.00;99.80;;;;;;6253773;28;20052;-76
2021/04/29 07:26:25;;;;;;;6.05;5.03;;;15.30;98.00;;;;;;6253000;28;20125;-77
2021/04/29 07:29:28;;;;;;;9.45;6.20;;;15.40;95.70;;;;;;6241990;28;20054;-76
2021/04/29 07:32:30;;;;;;;10.63;5.35;;;15.40;95.20;;;;;;6224668;28;20046;-77
2021/04/29 07:35:31;;;;;;;6.07;4.43;;;15.20;94.90;;;;;;6226750;28;20111;-77
2021/04/29 07:38:33;;;;;;;6.05;4.38;;;14.90;95.50;;;;;;6199798;28;20043;-76
2021/04/29 07:41:34;;;;;;;5.30;4.85;;;14.60;96.40;;;;;;6177315;28;20532;-76
2021/04/29 07:44:35;;;;;;;6.38;5.78;;;14.40;97.10;;;;;;6176032;28;20516;-76
2021/04/29 07:47:38;;;;;;;7.03;5.72;;;14.20;96.90;;;;;;6178973;28;20066;-76
2021/04/29 07:50:39;;;;;;;5.85;4.80;;;14.20;96.30;;;;;;6175808;28;20081;-76
2021/04/29 07:53:40;;;;;;;7.13;6.40;;;14.00;96.50;;;;;;6175338;28;20046;-75
2021/04/29 07:56:43;;;;;;;7.43;6.60;;;14.00;97.20;;;;;;6175286;28;20051;-76
2021/04/29 07:59:44;;;;;;;6.50;5.40;;;14.10;97.00;;;;;;6175095;28;20082;-76
2021/04/29 08:02:46;;;;;;;15.27;6.93;;;14.20;97.60;;;;;;6174984;28;20059;-75
2021/04/29 08:05:49;;;;;;;6.63;6.00;;;14.30;96.90;;;;;;6175065;28;20079;-75
2021/04/29 08:08:51;;;;;;;8.02;6.45;;;14.30;97.00;;;;;;6174376;28;20047;-76
2021/04/29 08:11:52;;;;;;;8.50;6.18;;;14.50;97.40;;;;;;6175181;28;20062;-76
2021/04/29 08:14:56;;;;;;;8.15;6.32;;;14.70;96.00;;;;;;6176236;28;20140;-76
2021/04/29 08:17:58;;;;;;;7.35;6.20;;;15.20;95.50;;;;;;6174896;28;20051;-76
2021/04/29 08:21:00;;;;;;;7.82;6.50;;;16.00;94.10;;;;;;6175443;28;20072;-77
2021/04/29 08:24:01;;;;;;;11.70;6.40;;;17.00;92.20;;;;;;6178072;28;20070;-77
2021/04/29 08:27:02;;;;;;;7.70;6.30;;;17.70;87.80;;;;;;6176574;28;20178;-77
2021/04/29 08:30:05;;;;;;;7.93;5.90;;;17.90;84.00;;;;;;6176498;28;20214;-78
2021/04/29 08:33:07;;;;;;;8.43;5.60;;;17.80;82.30;;;;;;6176680;28;20046;-77
2021/04/29 08:36:09;;;;;;;6.30;5.47;;;17.30;82.80;;;;;;6177457;28;20043;-78
2021/04/29 08:39:10;;;;;;;9.10;6.15;;;16.90;83.30;;;;;;6187240;28;20129;-77
2021/04/29 08:42:13;;;;;;;7.05;6.35;;;16.60;83.00;;;;;;6177200;28;20066;-75
2021/04/29 08:45:15;;;;;;;11.15;6.47;;;16.30;84.20;;;;;;6177240;28;20061;-77
2021/04/29 08:48:23;;;;;;;8.18;5.57;;;16.30;86.00;;;;;;6177151;28;20078;-77
2021/04/29 08:51:25;;;;;;;10.60;5.47;;;16.50;85.10;;;;;;6176254;28;20120;-76
2021/04/29 08:54:27;;;;;;;8.90;7.05;;;16.70;84.00;;;;;;6243698;22;20048;-78
2021/04/29 08:57:28;;;;;;;7.72;5.97;;;16.90;80.70;;;;;;6299682;28;20048;-78
2021/04/29 09:00:30;;;;;;;9.38;8.52;;;17.20;79.90;;;;;;6299778;28;20146;-78
2021/04/29 09:03:34;;;;;;;9.43;7.05;;;17.10;78.20;;;;;;6299465;28;20075;-78
2021/04/29 09:06:35;;;;;;;13.48;7.28;;;16.90;79.50;;;;;;6300088;28;20059;-79
2021/04/29 09:09:43;;;;;;;9.07;6.18;;;16.70;80.50;;;;;;6299250;28;20087;-78
2021/04/29 09:12:45;;;;;;;11.88;6.63;;;16.50;80.80;;;;;;6299487;28;20536;-79
2021/04/29 09:15:47;;;;;;;8.13;7.30;;;16.30;81.90;;;;;;6299186;28;20052;-78
2021/04/29 09:18:49;;;;;;;5.93;5.38;;;16.20;82.70;;;;;;6298473;28;20056;-78
2021/04/29 09:21:51;;;;;;;10.70;7.90;;;16.20;84.80;;;;;;6298755;28;20080;-78
2021/04/29 09:24:52;;;;;;;8.32;6.82;;;16.10;87.30;;;;;;6299172;28;20592;-78
2021/04/29 09:27:54;;;;;;;9.57;6.53;;;15.80;85.60;;;;;;6300133;28;20086;-77
2021/04/29 09:31:00;;;;;;;11.60;8.25;;;15.10;85.40;;;;;;6297963;28;20044;-78
2021/04/29 09:34:03;;;;;;;16.13;10.88;;;14.10;86.50;;;;;;6298427;28;20048;-77
2021/04/29 09:37:04;;;;;;;15.45;13.00;;;13.10;91.30;;;;;;6298093;28;20501;-78
2021/04/29 09:40:21;;;;;;;22.48;16.35;;;12.30;94.70;;;;;;6282929;28;20136;-78
2021/04/29 09:43:23;;;;;;;21.15;16.08;;;11.70;99.30;;;;;;6298259;28;20048;-78
2021/04/29 09:46:24;;;;;;;23.30;17.67;;;11.30;99.90;;;;;;6298745;28;20052;-78
2021/04/29 09:49:30;;;;;;;35.85;21.42;;;11.00;99.90;;;;;;6300322;28;20525;-79
2021/04/29 09:52:32;;;;;;;27.02;20.05;;;10.80;99.90;;;;;;6299538;28;20614;-78
2021/04/29 09:55:36;;;;;;;25.70;17.90;;;10.60;99.90;;;;;;6301288;28;20045;-79
2021/04/29 09:58:41;;;;;;;32.17;18.27;;;10.30;99.90;;;;;;6306424;28;20056;-78
2021/04/29 10:01:44;;;;;;;31.38;19.27;;;10.10;99.90;;;;;;6307034;28;20429;-79
2021/04/29 10:04:46;;;;;;;22.23;16.98;;;10.00;99.90;;;;;;6305470;28;20044;-78
2021/04/29 10:07:50;;;;;;;27.52;18.80;;;9.90;99.90;;;;;;6304465;28;20056;-78
2021/04/29 10:10:55;;;;;;;35.75;19.65;;;9.90;99.90;;;;;;6306161;28;20049;-79
2021/04/29 10:13:59;;;;;;;43.53;24.17;;;9.90;99.90;;;;;;6305891;28;20051;-79
2021/04/29 10:17:04;;;;;;;34.20;23.08;;;10.00;99.90;;;;;;6307167;28;20076;-79
2021/04/29 10:20:08;;;;;;;39.72;24.40;;;10.10;99.90;;;;;;6308150;28;20056;-79
2021/04/29 10:23:12;;;;;;;34.35;23.42;;;10.20;99.90;;;;;;6309313;28;20055;-79
2021/04/29 10:26:26;;;;;;;37.85;26.25;;;10.10;99.90;;;;;;6307069;28;20103;-79
2021/04/29 10:29:28;;;;;;;35.30;24.33;;;10.20;99.90;;;;;;6306199;28;20096;-79
2021/04/29 10:32:32;;;;;;;30.70;22.65;;;10.20;99.90;;;;;;6306008;28;20047;-79
2021/04/29 10:35:36;;;;;;;27.92;21.08;;;10.20;99.90;;;;;;6305165;28;20048;-78
2021/04/29 10:38:37;;;;;;;28.70;20.13;;;10.20;99.90;;;;;;6306040;28;20041;-79
2021/04/29 10:41:39;;;;;;;22.23;18.90;;;10.40;99.90;;;;;;6290692;28;20049;-79
2021/04/29 10:44:42;;;;;;;26.20;16.50;;;10.60;99.90;;;;;;6280103;28;20052;-79
2021/04/29 10:47:43;;;;;;;17.35;13.75;;;10.80;99.90;;;;;;6277206;28;20470;-79
2021/04/29 10:50:46;;;;;;;20.50;16.02;;;11.00;99.90;;;;;;6280219;28;20414;-79
2021/04/29 10:53:49;;;;;;;16.50;14.43;;;11.20;99.90;;;;;;6278568;28;20078;-79
2021/04/29 10:57:04;;;;;;;19.55;16.05;;;11.40;99.90;;;;;;6279060;28;20493;-79
2021/04/29 11:00:07;;;;;;;22.73;17.92;;;11.50;99.90;;;;;;6278550;28;20332;-79
2021/04/29 11:03:08;;;;;;;21.27;16.73;;;11.70;99.90;;;;;;6276747;28;20094;-79
2021/04/29 11:06:14;;;;;;;23.42;17.77;;;12.30;99.90;;;;;;6280051;28;20091;-79
2021/04/29 11:09:18;;;;;;;21.83;17.98;;;12.80;99.90;;;;;;6277125;28;20530;-78
2021/04/29 11:12:20;;;;;;;20.80;17.70;;;13.20;99.90;;;;;;6276639;28;20064;-79
2021/04/29 11:15:27;;;;;;;21.20;17.27;;;13.30;99.90;;;;;;6275511;28;20478;-79
2021/04/29 11:18:28;;;;;;;19.33;17.27;;;13.70;99.90;;;;;;6274019;28;20517;-78
2021/04/29 11:21:30;;;;;;;27.23;18.75;;;14.40;99.90;;;;;;6274566;28;20114;-77
2021/04/29 11:24:37;;;;;;;18.50;16.08;;;14.60;99.50;;;;;;6273045;28;20051;-78
2021/04/29 11:27:40;;;;;;;18.33;14.13;;;14.80;97.60;;;;;;6273097;28;20064;-78
2021/04/29 11:30:42;;;;;;;17.73;13.90;;;14.90;96.00;;;;;;6272730;28;20441;-78
2021/04/29 11:33:46;;;;;;;21.60;14.45;;;15.00;93.70;;;;;;6275649;28;20051;-80
2021/04/29 11:36:58;;;;;;;20.48;13.35;;;15.00;94.30;;;;;;6277254;28;20041;-80
2021/04/29 11:40:02;;;;;;;16.58;13.02;;;15.30;94.80;;;;;;6276164;28;20063;-80
2021/04/29 11:43:05;;;;;;;18.13;12.25;;;15.40;93.60;;;;;;6285272;28;20131;-80
2021/04/29 11:46:06;;;;;;;16.70;13.10;;;15.50;92.00;;;;;;6299873;28;20047;-79
2021/04/29 11:49:08;;;;;;;13.15;11.07;;;15.70;91.40;;;;;;6300763;28;20187;-80
2021/04/29 11:52:11;;;;;;;14.85;12.20;;;15.70;90.40;;;;;;6302613;28;20429;-79
2021/04/29 11:55:13;;;;;;;13.63;9.57;;;15.70;90.30;;;;;;6302900;28;20048;-79
2021/04/29 11:58:17;;;;;;;13.57;8.77;;;15.80;87.30;;;;;;6301200;28;20072;-80
2021/04/29 12:01:18;;;;;;;10.52;8.10;;;15.90;84.30;;;;;;6301083;28;20091;-80
2021/04/29 12:04:22;;;;;;;9.40;7.47;;;15.70;88.10;;;;;;6301159;28;20040;-80
2021/04/29 12:07:24;;;;;;;9.77;7.55;;;15.50;84.70;;;;;;6302658;28;20131;-80
2021/04/29 12:10:25;;;;;;;8.18;6.03;;;15.40;83.70;;;;;;6300760;28;20469;-80
2021/04/29 12:13:32;;;;;;;7.40;6.70;;;15.40;82.50;;;;;;6300013;28;20124;-80
2021/04/29 12:16:33;;;;;;;8.02;5.70;;;15.60;83.30;;;;;;6300962;28;20052;-79
2021/04/29 12:19:35;;;;;;;7.60;5.70;;;15.90;80.00;;;;;;6299194;28;20135;-80
2021/04/29 12:22:40;;;;;;;16.00;6.15;;;16.10;78.60;;;;;;6299735;28;20417;-80
2021/04/29 12:25:42;;;;;;;6.60;5.80;;;16.20;77.50;;;;;;6299451;28;20048;-80
2021/04/29 12:28:44;;;;;;;7.20;5.28;;;16.40;75.40;;;;;;6300468;28;20094;-80
2021/04/29 12:31:53;;;;;;;7.15;6.05;;;16.50;78.90;;;;;;6300441;28;20044;-80
2021/04/29 12:34:55;;;;;;;6.78;6.07;;;16.50;74.00;;;;;;6302029;28;20083;-79
2021/04/29 12:37:57;;;;;;;6.60;5.53;;;16.40;75.30;;;;;;6298801;28;20056;-79
2021/04/29 12:41:06;;;;;;;7.43;6.50;;;16.50;71.30;;;;;;6298696;28;20434;-78
2021/04/29 12:44:07;;;;;;;6.43;5.38;;;16.30;71.00;;;;;;6272627;28;20047;-79
2021/04/29 12:47:10;;;;;;;6.95;6.18;;;16.30;71.10;;;;;;6276108;28;20084;-78
2021/04/29 12:50:13;;;;;;;6.20;5.57;;;16.40;70.50;;;;;;6274540;28;20114;-79
2021/04/29 12:53:17;;;;;;;9.40;5.47;;;16.60;71.70;;;;;;6273269;28;20123;-78
2021/04/29 12:56:24;;;;;;;8.65;5.00;;;16.80;71.50;;;;;;6274635;28;20155;-79
2021/04/29 12:59:26;;;;;;;9.65;5.82;;;16.80;69.50;;;;;;6273983;28;20048;-77
2021/04/29 13:02:27;;;;;;;5.05;4.43;;;16.80;69.80;;;;;;6272581;28;20069;-78
2021/04/29 13:05:30;;;;;;;9.43;8.52;;;16.90;69.90;;;;;;6273631;28;20082;-78
2021/04/29 13:08:55;;;;;;;6.60;5.60;;;17.00;69.60;;;;;;6274210;28;20052;-79
2021/04/29 13:12:07;;;;;;;19.15;6.60;;;17.10;70.30;;;;;;6275106;28;20090;-79
2021/04/29 13:15:11;;;;;;;9.48;5.55;;;17.10;69.70;;;;;;6282832;28;20068;-80
2021/04/29 13:18:23;;;;;;;8.57;4.95;;;17.00;67.60;;;;;;6279409;28;20079;-80
2021/04/29 13:21:24;;;;;;;5.93;5.32;;;16.80;69.50;;;;;;6286921;28;20040;-79
2021/04/29 13:24:27;;;;;;;8.48;4.78;;;16.70;69.60;;;;;;6295965;28;20041;-79
2021/04/29 13:27:28;;;;;;;9.18;5.68;;;16.50;69.30;;;;;;6284711;28;20117;-79
2021/04/29 13:30:30;;;;;;;6.28;5.28;;;16.20;70.50;;;;;;6279114;28;20045;-79
2021/04/29 13:33:31;;;;;;;5.78;4.70;;;16.20;71.60;;;;;;6279967;28;20080;-79
2021/04/29 13:36:32;;;;;;;7.25;5.43;;;16.10;72.00;;;;;;6280227;28;20049;-79
2021/04/29 13:39:35;;;;;;;8.18;5.57;;;16.20;73.80;;;;;;6278981;28;20049;-79
2021/04/29 13:42:37;;;;;;;10.90;6.82;;;16.30;73.30;;;;;;6276492;28;20045;-79
2021/04/29 13:45:40;;;;;;;6.20;4.45;;;16.50;73.60;;;;;;6275894;28;20049;-79
2021/04/29 13:48:41;;;;;;;6.28;5.65;;;16.60;71.30;;;;;;6275952;28;20043;-79
2021/04/29 13:51:43;;;;;;;6.82;6.13;;;16.70;71.70;;;;;;6280454;28;20048;-78
2021/04/29 13:54:45;;;;;;;6.00;5.20;;;17.10;70.10;;;;;;6280837;28;20053;-78
2021/04/29 13:57:47;;;;;;;5.88;5.05;;;17.40;69.20;;;;;;6280894;28;20131;-79
2021/04/29 14:00:48;;;;;;;7.93;5.43;;;17.50;68.30;;;;;;6279210;28;20045;-79
2021/04/29 14:03:50;;;;;;;8.15;4.55;;;17.60;66.50;;;;;;6280002;28;20136;-79
2021/04/29 14:06:51;;;;;;;7.60;6.60;;;17.50;65.10;;;;;;6280793;28;20067;-79
2021/04/29 14:09:54;;;;;;;8.98;7.10;;;17.30;68.50;;;;;;6278901;28;20037;-79
2021/04/29 14:12:55;;;;;;;9.85;8.43;;;16.80;75.90;;;;;;6277910;28;20041;-78
2021/04/29 14:15:58;;;;;;;9.45;8.55;;;15.90;80.30;;;;;;6279286;28;20666;-79
2021/04/29 14:18:59;;;;;;;16.45;12.32;;;15.30;85.40;;;;;;6279613;28;20056;-78
2021/04/29 14:22:01;;;;;;;13.43;11.85;;;14.80;90.30;;;;;;6279095;28;20214;-78
2021/04/29 14:25:04;;;;;;;12.52;10.80;;;14.60;92.90;;;;;;6279042;28;20045;-78
2021/04/29 14:28:05;;;;;;;14.98;11.73;;;14.50;93.10;;;;;;6279205;28;20060;-79
2021/04/29 14:31:07;;;;;;;12.73;11.40;;;14.50;93.30;;;;;;6281101;28;20063;-79
2021/04/29 14:34:08;;;;;;;11.20;9.65;;;14.70;95.20;;;;;;6280370;28;20122;-79
2021/04/29 14:37:09;;;;;;;10.55;9.55;;;15.10;93.60;;;;;;6281984;28;20076;-78
2021/04/29 14:40:14;;;;;;;12.63;10.05;;;15.20;94.90;;;;;;6282426;28;20095;-79
2021/04/29 14:43:15;;;;;;;11.05;7.32;;;15.40;94.00;;;;;;6279991;28;20108;-79
2021/04/29 14:46:16;;;;;;;9.57;7.80;;;15.50;92.00;;;;;;6279074;28;20095;-78
2021/04/29 14:49:18;;;;;;;8.95;7.63;;;15.50;91.40;;;;;;6279533;28;20072;-79
2021/04/29 14:52:19;;;;;;;8.05;7.30;;;15.30;90.90;;;;;;6279654;28;20045;-77
2021/04/29 14:55:21;;;;;;;8.55;6.93;;;15.10;90.80;;;;;;6293117;22;20109;-78
2021/04/29 14:58:23;;;;;;;8.55;6.05;;;15.10;91.50;;;;;;6287096;28;20529;-80
2021/04/29 15:01:24;;;;;;;5.95;5.13;;;15.40;92.20;;;;;;6286851;28;20071;-79
2021/04/29 15:04:25;;;;;;;5.35;4.90;;;15.90;91.00;;;;;;6288236;28;20049;-79
2021/04/29 15:07:27;;;;;;;6.80;4.65;;;16.30;86.80;;;;;;6284226;28;20540;-78
2021/04/29 15:10:33;;;;;;;5.32;3.75;;;16.50;82.20;;;;;;6290767;28;20045;-79
2021/04/29 15:13:35;;;;;;;4.47;4.18;;;16.70;78.40;;;;;;6285478;28;20132;-77
2021/04/29 15:16:37;;;;;;;4.78;3.78;;;17.00;72.50;;;;;;6282157;28;20045;-79
2021/04/29 15:19:38;;;;;;;5.55;2.90;;;17.20;71.90;;;;;;6285943;28;20060;-78
2021/04/29 15:22:40;;;;;;;4.85;4.40;;;17.50;73.70;;;;;;6289778;28;20049;-78
2021/04/29 15:25:42;;;;;;;8.52;3.95;;;17.70;67.80;;;;;;6288533;28;20068;-80
2021/04/29 15:28:43;;;;;;;4.55;3.20;;;17.90;62.30;;;;;;6289354;28;20510;-79
2021/04/29 15:31:44;;;;;;;6.35;4.75;;;17.90;61.80;;;;;;6289450;28;20060;-78
2021/04/29 15:34:46;;;;;;;5.40;4.68;;;17.80;61.00;;;;;;6289818;28;20064;-79